Caloundra, Australia
Current Conditions -  °F | °C
As of 5:00 AM on Friday 31 Oct 2014 (Local Time) from YBBN Reporting Station
Broken Clouds Broken Clouds  
Wind Chill: 23°   Ceiling: 2200
Heat Index: 23°   Visibility: 6mi
Dew Point: 18°   Wind: 7mph
Humidity: 73%   Direction: 350°N
Pressure: 29.97"   Gusts: NA
Location:  26.8°S, 153.13°E
Report Text: YBBN 301900Z 35006KT 9999 FEW008 SCT018 BKN022 23/18 Q1015
Loading
Personal Weather Stations






























Interactive Weather Map
Tropical Storm Tracking
New forecast layout! Learn more

10-Day Weather Forecast

Advertisements
Track Severe Weather on mobile